Aérodrome :
LOGIN :

S'inscrire | Disclaimer

   EN    FR    IT 

 










Légende :    VFR   VFR Marginal   IFR   IFR Intensif   IFR Très Intensif
Visi : 
Plafond : 
>= 8 km
>= 3000ft
5 à 8 km
1000 à 3000 ft
1500m à 5 km
500 à 1000 ft
800 à 1500m
200 à 500 ft
< 800m
< 200 ft
Symboles :   Orages  Brouillard  Fortes neiges  Fortes précipitations  Vent > 20 kt
SIGMETs :   Divers  Orages  Givrage  Turbulence  Onde Orograph.  Cendres Volcan.






- Altitude de l'aérodrome : 117 ft
- Code IATA : NWI


EGSH - Norwich

DERNIER METAR :
  • 240220Z AUTO 24003KT 3800 BR FEW003/// SCT007/// OVC011/// 06/05 Q1024

METARs EXPIRÉS :
  • 240150Z AUTO 27005KT 2000 BR BKN001/// OVC008/// 06/05 Q1025
  • 240120Z AUTO 25005KT 2300 BR OVC002/// 06/06 Q1025
  • 240050Z AUTO 22003KT 3400 BR OVC002/// 06/05 Q1025
  • 240020Z AUTO 21003KT 3800 HZ OVC002/// 06/05 Q1025
  • 232350Z AUTO 24003KT 2800 HZ OVC002/// 06/05 Q1026

TAF TAF EGSH
Valide du 24 à 03h jusqu'au 24 à 12h UTC


240159Z 2403/2412 22004KT 5000 BR SCT002 BKN005
TEMPO 2403/2409 2000 BKN002
PROB40
TEMPO 2403/2409 1200 -DZ BKN001
BECMG 2409/2412 7000 NSW BKN012
ATIS : +44 1603 420 640



MET'MAP, la Météo Aéronautique d'un coup d'oeil ! - Copyright ORBIFLY Décembre 2007 - Disclaimer

ORBIFLY MET'MAP TEAM :

Programmation & Développement : Alexandra Zaïnal
Sur une idée originale de : Baudouin d'Aumeries
Assistance à la programmation : Marc-Olivier Méhu
Soutien technique & logistique : Manuel Goepfert

Contact : metmap@orbifly.com




SOURCES & CREDITS :

   NOAA